sensor_id;sensor_type;location;lat;lon;timestamp;P1;durP1;ratioP1;P2;durP2;ratioP2
63312;SDS011;49442;45.640;13.812;2024-01-16T00:01:22;5.38;;;3.47;;
63312;SDS011;49442;45.640;13.812;2024-01-16T00:03:48;4.15;;;3.30;;
63312;SDS011;49442;45.640;13.812;2024-01-16T00:06:13;11.70;;;5.15;;
63312;SDS011;49442;45.640;13.812;2024-01-16T00:08:39;6.10;;;3.28;;
63312;SDS011;49442;45.640;13.812;2024-01-16T00:11:05;6.82;;;3.30;;
63312;SDS011;49442;45.640;13.812;2024-01-16T00:13:32;5.85;;;2.95;;
63312;SDS011;49442;45.640;13.812;2024-01-16T00:15:58;7.53;;;4.35;;
63312;SDS011;49442;45.640;13.812;2024-01-16T00:18:24;5.78;;;3.35;;
63312;SDS011;49442;45.640;13.812;2024-01-16T00:20:52;4.32;;;3.13;;
63312;SDS011;49442;45.640;13.812;2024-01-16T00:23:20;3.58;;;2.97;;
63312;SDS011;49442;45.640;13.812;2024-01-16T00:25:46;6.35;;;3.80;;
63312;SDS011;49442;45.640;13.812;2024-01-16T00:28:12;5.50;;;3.72;;
63312;SDS011;49442;45.640;13.812;2024-01-16T00:30:38;4.20;;;2.97;;
63312;SDS011;49442;45.640;13.812;2024-01-16T00:33:03;4.72;;;3.13;;
63312;SDS011;49442;45.640;13.812;2024-01-16T00:35:29;3.88;;;2.70;;
63312;SDS011;49442;45.640;13.812;2024-01-16T00:37:55;12.23;;;2.80;;
63312;SDS011;49442;45.640;13.812;2024-01-16T00:40:20;9.02;;;3.10;;
63312;SDS011;49442;45.640;13.812;2024-01-16T00:42:46;7.55;;;3.10;;
63312;SDS011;49442;45.640;13.812;2024-01-16T00:45:12;4.72;;;2.80;;
63312;SDS011;49442;45.640;13.812;2024-01-16T00:47:37;3.90;;;2.60;;
63312;SDS011;49442;45.640;13.812;2024-01-16T00:50:03;6.15;;;2.90;;
63312;SDS011;49442;45.640;13.812;2024-01-16T00:52:30;3.63;;;2.30;;
63312;SDS011;49442;45.640;13.812;2024-01-16T00:54:55;3.85;;;2.97;;
63312;SDS011;49442;45.640;13.812;2024-01-16T00:57:21;3.42;;;2.22;;
63312;SDS011;49442;45.640;13.812;2024-01-16T00:59:47;2.40;;;2.15;;
63312;SDS011;49442;45.640;13.812;2024-01-16T01:02:13;4.55;;;2.08;;
63312;SDS011;49442;45.640;13.812;2024-01-16T01:04:39;3.55;;;2.15;;
63312;SDS011;49442;45.640;13.812;2024-01-16T01:07:06;2.97;;;2.15;;
63312;SDS011;49442;45.640;13.812;2024-01-16T01:09:33;4.25;;;2.22;;
63312;SDS011;49442;45.640;13.812;2024-01-16T01:11:59;2.03;;;1.80;;
63312;SDS011;49442;45.640;13.812;2024-01-16T01:14:25;2.88;;;2.20;;
63312;SDS011;49442;45.640;13.812;2024-01-16T01:16:54;3.13;;;2.70;;
63312;SDS011;49442;45.640;13.812;2024-01-16T01:19:19;2.72;;;2.00;;
63312;SDS011;49442;45.640;13.812;2024-01-16T01:21:45;2.53;;;2.30;;
63312;SDS011;49442;45.640;13.812;2024-01-16T01:24:11;4.22;;;1.98;;
63312;SDS011;49442;45.640;13.812;2024-01-16T01:26:36;2.42;;;1.60;;
63312;SDS011;49442;45.640;13.812;2024-01-16T01:29:02;2.70;;;1.85;;
63312;SDS011;49442;45.640;13.812;2024-01-16T01:31:28;9.43;;;2.47;;
63312;SDS011;49442;45.640;13.812;2024-01-16T01:33:53;2.60;;;1.80;;
63312;SDS011;49442;45.640;13.812;2024-01-16T01:36:19;2.28;;;1.75;;
63312;SDS011;49442;45.640;13.812;2024-01-16T01:38:45;2.88;;;1.90;;
63312;SDS011;49442;45.640;13.812;2024-01-16T01:41:14;3.17;;;1.77;;
63312;SDS011;49442;45.640;13.812;2024-01-16T01:43:39;1.75;;;1.63;;
63312;SDS011;49442;45.640;13.812;2024-01-16T01:51:06;2.55;;;1.95;;
63312;SDS011;49442;45.640;13.812;2024-01-16T01:53:36;2.75;;;1.77;;
63312;SDS011;49442;45.640;13.812;2024-01-16T01:56:03;2.35;;;1.75;;
63312;SDS011;49442;45.640;13.812;2024-01-16T01:58:33;2.28;;;1.50;;
63312;SDS011;49442;45.640;13.812;2024-01-16T02:01:00;2.50;;;1.48;;
63312;SDS011;49442;45.640;13.812;2024-01-16T02:03:27;2.08;;;1.45;;
63312;SDS011;49442;45.640;13.812;2024-01-16T02:05:57;2.17;;;1.67;;
63312;SDS011;49442;45.640;13.812;2024-01-16T02:08:24;3.17;;;1.63;;
63312;SDS011;49442;45.640;13.812;2024-01-16T02:10:50;3.88;;;1.80;;
63312;SDS011;49442;45.640;13.812;2024-01-16T02:13:16;3.55;;;1.50;;
63312;SDS011;49442;45.640;13.812;2024-01-16T02:15:46;3.28;;;1.40;;
63312;SDS011;49442;45.640;13.812;2024-01-16T02:18:11;1.67;;;1.38;;
63312;SDS011;49442;45.640;13.812;2024-01-16T02:20:37;2.30;;;1.60;;
63312;SDS011;49442;45.640;13.812;2024-01-16T02:23:03;3.05;;;1.73;;
63312;SDS011;49442;45.640;13.812;2024-01-16T02:25:29;3.05;;;1.95;;
63312;SDS011;49442;45.640;13.812;2024-01-16T02:27:55;2.65;;;1.88;;
63312;SDS011;49442;45.640;13.812;2024-01-16T02:30:21;2.03;;;1.80;;
63312;SDS011;49442;45.640;13.812;2024-01-16T02:32:47;2.13;;;1.70;;
63312;SDS011;49442;45.640;13.812;2024-01-16T02:35:12;2.35;;;1.98;;
63312;SDS011;49442;45.640;13.812;2024-01-16T02:37:38;2.20;;;1.60;;
63312;SDS011;49442;45.640;13.812;2024-01-16T02:40:04;3.03;;;1.80;;
63312;SDS011;49442;45.640;13.812;2024-01-16T02:42:31;3.50;;;1.67;;
63312;SDS011;49442;45.640;13.812;2024-01-16T02:44:58;1.98;;;1.50;;
63312;SDS011;49442;45.640;13.812;2024-01-16T02:47:23;1.50;;;1.38;;
63312;SDS011;49442;45.640;13.812;2024-01-16T02:49:49;2.60;;;1.92;;
63312;SDS011;49442;45.640;13.812;2024-01-16T02:52:15;2.05;;;1.83;;
63312;SDS011;49442;45.640;13.812;2024-01-16T02:54:41;2.10;;;1.60;;
63312;SDS011;49442;45.640;13.812;2024-01-16T02:57:07;2.67;;;2.05;;
63312;SDS011;49442;45.640;13.812;2024-01-16T02:59:32;2.25;;;1.77;;
63312;SDS011;49442;45.640;13.812;2024-01-16T03:01:58;1.40;;;1.27;;
63312;SDS011;49442;45.640;13.812;2024-01-16T03:04:24;2.50;;;1.80;;
63312;SDS011;49442;45.640;13.812;2024-01-16T03:06:49;2.15;;;1.92;;
63312;SDS011;49442;45.640;13.812;2024-01-16T03:09:15;3.38;;;1.70;;
63312;SDS011;49442;45.640;13.812;2024-01-16T03:11:41;1.65;;;1.55;;
63312;SDS011;49442;45.640;13.812;2024-01-16T03:14:06;1.70;;;1.60;;
63312;SDS011;49442;45.640;13.812;2024-01-16T03:16:32;2.97;;;1.92;;
63312;SDS011;49442;45.640;13.812;2024-01-16T03:18:58;3.45;;;2.25;;
63312;SDS011;49442;45.640;13.812;2024-01-16T03:21:23;3.38;;;1.70;;
63312;SDS011;49442;45.640;13.812;2024-01-16T03:23:49;5.00;;;2.40;;
63312;SDS011;49442;45.640;13.812;2024-01-16T03:26:15;2.58;;;1.85;;
63312;SDS011;49442;45.640;13.812;2024-01-16T03:28:41;2.60;;;1.70;;
63312;SDS011;49442;45.640;13.812;2024-01-16T03:31:07;2.40;;;2.20;;
63312;SDS011;49442;45.640;13.812;2024-01-16T03:33:33;2.38;;;1.85;;
63312;SDS011;49442;45.640;13.812;2024-01-16T03:36:00;2.50;;;2.20;;
63312;SDS011;49442;45.640;13.812;2024-01-16T03:38:25;2.97;;;2.03;;
63312;SDS011;49442;45.640;13.812;2024-01-16T03:40:51;2.63;;;1.98;;
63312;SDS011;49442;45.640;13.812;2024-01-16T03:43:17;2.35;;;1.73;;
63312;SDS011;49442;45.640;13.812;2024-01-16T03:45:43;2.50;;;2.10;;
63312;SDS011;49442;45.640;13.812;2024-01-16T03:48:09;2.22;;;1.92;;
63312;SDS011;49442;45.640;13.812;2024-01-16T03:50:35;2.97;;;2.20;;
63312;SDS011;49442;45.640;13.812;2024-01-16T03:53:01;2.58;;;2.08;;
63312;SDS011;49442;45.640;13.812;2024-01-16T03:55:29;2.42;;;2.13;;
63312;SDS011;49442;45.640;13.812;2024-01-16T03:57:55;2.85;;;2.05;;
63312;SDS011;49442;45.640;13.812;2024-01-16T04:00:21;3.83;;;2.58;;
63312;SDS011;49442;45.640;13.812;2024-01-16T04:02:47;2.50;;;2.10;;
63312;SDS011;49442;45.640;13.812;2024-01-16T04:05:13;6.65;;;2.45;;
63312;SDS011;49442;45.640;13.812;2024-01-16T04:07:38;2.90;;;2.30;;
63312;SDS011;49442;45.640;13.812;2024-01-16T04:10:05;3.83;;;2.67;;
63312;SDS011;49442;45.640;13.812;2024-01-16T04:12:32;6.90;;;2.50;;
63312;SDS011;49442;45.640;13.812;2024-01-16T04:14:57;3.53;;;2.17;;
63312;SDS011;49442;45.640;13.812;2024-01-16T04:17:23;2.65;;;2.13;;
63312;SDS011;49442;45.640;13.812;2024-01-16T04:19:49;2.70;;;2.22;;
63312;SDS011;49442;45.640;13.812;2024-01-16T04:22:14;3.38;;;1.60;;
63312;SDS011;49442;45.640;13.812;2024-01-16T04:24:40;2.60;;;2.03;;
63312;SDS011;49442;45.640;13.812;2024-01-16T04:27:06;2.03;;;1.83;;
63312;SDS011;49442;45.640;13.812;2024-01-16T04:29:31;2.45;;;2.00;;
63312;SDS011;49442;45.640;13.812;2024-01-16T04:31:57;1.88;;;1.52;;
63312;SDS011;49442;45.640;13.812;2024-01-16T04:34:24;2.58;;;1.80;;
63312;SDS011;49442;45.640;13.812;2024-01-16T04:36:49;2.67;;;1.50;;
63312;SDS011;49442;45.640;13.812;2024-01-16T04:39:15;2.55;;;1.80;;
63312;SDS011;49442;45.640;13.812;2024-01-16T04:41:41;3.50;;;1.95;;
63312;SDS011;49442;45.640;13.812;2024-01-16T04:44:06;2.70;;;1.90;;
63312;SDS011;49442;45.640;13.812;2024-01-16T04:46:32;2.08;;;1.60;;
63312;SDS011;49442;45.640;13.812;2024-01-16T04:48:58;2.22;;;1.75;;
63312;SDS011;49442;45.640;13.812;2024-01-16T04:51:23;4.00;;;1.60;;
63312;SDS011;49442;45.640;13.812;2024-01-16T04:53:49;3.47;;;2.35;;
63312;SDS011;49442;45.640;13.812;2024-01-16T04:56:15;2.85;;;2.10;;
63312;SDS011;49442;45.640;13.812;2024-01-16T04:58:40;2.13;;;1.70;;
63312;SDS011;49442;45.640;13.812;2024-01-16T05:01:06;1.85;;;1.50;;
63312;SDS011;49442;45.640;13.812;2024-01-16T05:03:33;1.95;;;1.73;;
63312;SDS011;49442;45.640;13.812;2024-01-16T05:05:58;2.03;;;1.52;;
63312;SDS011;49442;45.640;13.812;2024-01-16T05:08:24;1.95;;;1.50;;
63312;SDS011;49442;45.640;13.812;2024-01-16T05:10:50;3.17;;;2.15;;
63312;SDS011;49442;45.640;13.812;2024-01-16T05:13:15;2.55;;;1.90;;
63312;SDS011;49442;45.640;13.812;2024-01-16T05:15:41;1.75;;;1.38;;
63312;SDS011;49442;45.640;13.812;2024-01-16T05:18:07;3.15;;;1.88;;
63312;SDS011;49442;45.640;13.812;2024-01-16T05:20:34;2.65;;;2.03;;
63312;SDS011;49442;45.640;13.812;2024-01-16T05:23:00;2.05;;;1.40;;
63312;SDS011;49442;45.640;13.812;2024-01-16T05:25:25;2.72;;;1.63;;
63312;SDS011;49442;45.640;13.812;2024-01-16T05:27:51;1.73;;;1.58;;
63312;SDS011;49442;45.640;13.812;2024-01-16T05:30:17;2.75;;;1.73;;
63312;SDS011;49442;45.640;13.812;2024-01-16T05:32:42;2.05;;;1.70;;
63312;SDS011;49442;45.640;13.812;2024-01-16T05:35:08;2.83;;;1.70;;
63312;SDS011;49442;45.640;13.812;2024-01-16T05:37:36;2.67;;;1.70;;
63312;SDS011;49442;45.640;13.812;2024-01-16T05:40:02;1.50;;;1.30;;
63312;SDS011;49442;45.640;13.812;2024-01-16T05:42:29;3.90;;;1.70;;
63312;SDS011;49442;45.640;13.812;2024-01-16T05:44:55;1.90;;;1.60;;
63312;SDS011;49442;45.640;13.812;2024-01-16T05:47:20;2.00;;;1.80;;
63312;SDS011;49442;45.640;13.812;2024-01-16T05:49:49;2.13;;;1.50;;
63312;SDS011;49442;45.640;13.812;2024-01-16T05:52:14;2.22;;;1.63;;
63312;SDS011;49442;45.640;13.812;2024-01-16T05:54:40;2.13;;;1.95;;
63312;SDS011;49442;45.640;13.812;2024-01-16T05:57:06;2.20;;;1.80;;
63312;SDS011;49442;45.640;13.812;2024-01-16T05:59:31;2.55;;;1.58;;
63312;SDS011;49442;45.640;13.812;2024-01-16T06:01:57;2.15;;;1.63;;
63312;SDS011;49442;45.640;13.812;2024-01-16T06:04:23;1.95;;;1.45;;
63312;SDS011;49442;45.640;13.812;2024-01-16T06:06:48;1.48;;;1.33;;
63312;SDS011;49442;45.640;13.812;2024-01-16T06:09:14;2.58;;;1.70;;
63312;SDS011;49442;45.640;13.812;2024-01-16T06:11:40;2.22;;;1.83;;
63312;SDS011;49442;45.640;13.812;2024-01-16T06:14:06;2.05;;;1.50;;
63312;SDS011;49442;45.640;13.812;2024-01-16T06:16:32;1.90;;;1.50;;
63312;SDS011;49442;45.640;13.812;2024-01-16T06:18:58;1.80;;;1.55;;
63312;SDS011;49442;45.640;13.812;2024-01-16T06:21:24;3.15;;;2.03;;
63312;SDS011;49442;45.640;13.812;2024-01-16T06:23:49;2.00;;;1.58;;
63312;SDS011;49442;45.640;13.812;2024-01-16T06:26:15;2.15;;;1.52;;
63312;SDS011;49442;45.640;13.812;2024-01-16T06:28:41;2.35;;;1.55;;
63312;SDS011;49442;45.640;13.812;2024-01-16T06:31:08;3.33;;;1.90;;
63312;SDS011;49442;45.640;13.812;2024-01-16T06:33:34;1.67;;;1.42;;
63312;SDS011;49442;45.640;13.812;2024-01-16T06:36:00;2.42;;;1.85;;
63312;SDS011;49442;45.640;13.812;2024-01-16T06:38:30;2.22;;;1.73;;
63312;SDS011;49442;45.640;13.812;2024-01-16T06:40:56;2.25;;;1.85;;
63312;SDS011;49442;45.640;13.812;2024-01-16T06:43:22;2.08;;;1.60;;
63312;SDS011;49442;45.640;13.812;2024-01-16T06:45:48;2.22;;;1.67;;
63312;SDS011;49442;45.640;13.812;2024-01-16T06:48:14;2.45;;;1.60;;
63312;SDS011;49442;45.640;13.812;2024-01-16T06:50:40;2.45;;;1.75;;
63312;SDS011;49442;45.640;13.812;2024-01-16T06:53:06;2.30;;;1.55;;
63312;SDS011;49442;45.640;13.812;2024-01-16T06:55:32;1.95;;;1.55;;
63312;SDS011;49442;45.640;13.812;2024-01-16T06:57:58;2.10;;;1.80;;
63312;SDS011;49442;45.640;13.812;2024-01-16T07:00:24;2.75;;;1.88;;
63312;SDS011;49442;45.640;13.812;2024-01-16T07:02:52;1.98;;;1.50;;
63312;SDS011;49442;45.640;13.812;2024-01-16T07:05:19;2.08;;;1.80;;
63312;SDS011;49442;45.640;13.812;2024-01-16T07:07:45;2.35;;;1.98;;
63312;SDS011;49442;45.640;13.812;2024-01-16T07:10:10;3.55;;;1.48;;
63312;SDS011;49442;45.640;13.812;2024-01-16T07:12:46;1.80;;;1.50;;
63312;SDS011;49442;45.640;13.812;2024-01-16T07:15:12;4.13;;;1.83;;
63312;SDS011;49442;45.640;13.812;2024-01-16T07:17:39;2.78;;;2.05;;
63312;SDS011;49442;45.640;13.812;2024-01-16T07:20:05;2.47;;;1.83;;
63312;SDS011;49442;45.640;13.812;2024-01-16T07:22:31;1.63;;;1.52;;
63312;SDS011;49442;45.640;13.812;2024-01-16T07:24:56;2.78;;;1.80;;
63312;SDS011;49442;45.640;13.812;2024-01-16T07:27:22;3.65;;;3.22;;
63312;SDS011;49442;45.640;13.812;2024-01-16T07:29:48;1.88;;;1.52;;
63312;SDS011;49442;45.640;13.812;2024-01-16T07:32:13;6.50;;;1.77;;
63312;SDS011;49442;45.640;13.812;2024-01-16T07:34:39;2.17;;;1.65;;
63312;SDS011;49442;45.640;13.812;2024-01-16T07:37:05;2.47;;;1.77;;
63312;SDS011;49442;45.640;13.812;2024-01-16T07:39:38;3.67;;;1.67;;
63312;SDS011;49442;45.640;13.812;2024-01-16T07:42:03;1.60;;;1.50;;
63312;SDS011;49442;45.640;13.812;2024-01-16T07:44:29;1.83;;;1.35;;
63312;SDS011;49442;45.640;13.812;2024-01-16T07:46:55;1.83;;;1.60;;
63312;SDS011;49442;45.640;13.812;2024-01-16T07:49:21;1.70;;;1.60;;
63312;SDS011;49442;45.640;13.812;2024-01-16T07:51:46;2.55;;;1.60;;
63312;SDS011;49442;45.640;13.812;2024-01-16T07:54:12;1.63;;;1.52;;
63312;SDS011;49442;45.640;13.812;2024-01-16T07:56:38;1.67;;;1.58;;
63312;SDS011;49442;45.640;13.812;2024-01-16T07:59:04;2.75;;;1.33;;
63312;SDS011;49442;45.640;13.812;2024-01-16T08:01:30;2.15;;;1.95;;
63312;SDS011;49442;45.640;13.812;2024-01-16T08:03:56;2.95;;;1.95;;
63312;SDS011;49442;45.640;13.812;2024-01-16T08:06:21;2.22;;;1.70;;
63312;SDS011;49442;45.640;13.812;2024-01-16T08:08:48;2.60;;;1.77;;
63312;SDS011;49442;45.640;13.812;2024-01-16T08:11:14;2.75;;;1.65;;
63312;SDS011;49442;45.640;13.812;2024-01-16T08:13:41;1.60;;;1.27;;
63312;SDS011;49442;45.640;13.812;2024-01-16T08:16:07;1.63;;;1.33;;
63312;SDS011;49442;45.640;13.812;2024-01-16T08:18:33;6.70;;;1.60;;
63312;SDS011;49442;45.640;13.812;2024-01-16T08:20:59;2.50;;;1.55;;
63312;SDS011;49442;45.640;13.812;2024-01-16T08:23:25;2.13;;;1.58;;
63312;SDS011;49442;45.640;13.812;2024-01-16T08:25:50;2.38;;;1.50;;
63312;SDS011;49442;45.640;13.812;2024-01-16T08:28:20;4.65;;;1.70;;
63312;SDS011;49442;45.640;13.812;2024-01-16T08:30:45;2.13;;;1.45;;
63312;SDS011;49442;45.640;13.812;2024-01-16T08:33:11;4.78;;;1.75;;
63312;SDS011;49442;45.640;13.812;2024-01-16T08:35:37;5.50;;;1.80;;
63312;SDS011;49442;45.640;13.812;2024-01-16T08:38:03;1.73;;;1.45;;
63312;SDS011;49442;45.640;13.812;2024-01-16T08:40:29;4.53;;;1.85;;
63312;SDS011;49442;45.640;13.812;2024-01-16T08:42:58;3.42;;;1.30;;
63312;SDS011;49442;45.640;13.812;2024-01-16T08:45:24;1.90;;;1.73;;
63312;SDS011;49442;45.640;13.812;2024-01-16T08:47:51;4.47;;;1.67;;
63312;SDS011;49442;45.640;13.812;2024-01-16T08:50:16;2.78;;;1.70;;
63312;SDS011;49442;45.640;13.812;2024-01-16T08:52:42;2.78;;;1.60;;
63312;SDS011;49442;45.640;13.812;2024-01-16T08:55:08;4.93;;;1.50;;
63312;SDS011;49442;45.640;13.812;2024-01-16T08:57:35;3.35;;;1.42;;
63312;SDS011;49442;45.640;13.812;2024-01-16T09:00:02;1.40;;;1.27;;
63312;SDS011;49442;45.640;13.812;2024-01-16T09:02:29;1.95;;;1.40;;
63312;SDS011;49442;45.640;13.812;2024-01-16T09:04:56;4.43;;;1.75;;
63312;SDS011;49442;45.640;13.812;2024-01-16T09:07:23;2.85;;;1.40;;
63312;SDS011;49442;45.640;13.812;2024-01-16T09:09:49;3.20;;;1.73;;
63312;SDS011;49442;45.640;13.812;2024-01-16T09:12:15;4.43;;;1.40;;
63312;SDS011;49442;45.640;13.812;2024-01-16T09:14:41;1.55;;;1.38;;
63312;SDS011;49442;45.640;13.812;2024-01-16T09:17:06;2.00;;;1.58;;
63312;SDS011;49442;45.640;13.812;2024-01-16T09:19:32;1.70;;;1.60;;
63312;SDS011;49442;45.640;13.812;2024-01-16T09:21:58;2.35;;;1.80;;
63312;SDS011;49442;45.640;13.812;2024-01-16T09:24:23;1.88;;;1.45;;
63312;SDS011;49442;45.640;13.812;2024-01-16T09:26:49;2.92;;;1.65;;
63312;SDS011;49442;45.640;13.812;2024-01-16T09:29:15;3.35;;;1.83;;
63312;SDS011;49442;45.640;13.812;2024-01-16T09:31:41;2.20;;;1.50;;
63312;SDS011;49442;45.640;13.812;2024-01-16T09:34:07;2.53;;;1.60;;
63312;SDS011;49442;45.640;13.812;2024-01-16T09:36:33;1.58;;;1.20;;
63312;SDS011;49442;45.640;13.812;2024-01-16T09:39:02;3.80;;;1.58;;
63312;SDS011;49442;45.640;13.812;2024-01-16T09:41:33;1.50;;;1.30;;
63312;SDS011;49442;45.640;13.812;2024-01-16T09:43:59;2.20;;;1.77;;
63312;SDS011;49442;45.640;13.812;2024-01-16T09:46:25;2.03;;;1.65;;
63312;SDS011;49442;45.640;13.812;2024-01-16T09:48:55;1.80;;;1.60;;
63312;SDS011;49442;45.640;13.812;2024-01-16T09:51:22;2.42;;;1.83;;
63312;SDS011;49442;45.640;13.812;2024-01-16T09:53:48;4.60;;;1.65;;
63312;SDS011;49442;45.640;13.812;2024-01-16T09:56:14;2.00;;;1.70;;
63312;SDS011;49442;45.640;13.812;2024-01-16T09:58:41;5.00;;;1.75;;
63312;SDS011;49442;45.640;13.812;2024-01-16T10:01:08;2.35;;;1.60;;
63312;SDS011;49442;45.640;13.812;2024-01-16T10:03:35;2.72;;;1.65;;
63312;SDS011;49442;45.640;13.812;2024-01-16T10:06:04;3.17;;;1.80;;
63312;SDS011;49442;45.640;13.812;2024-01-16T10:08:31;2.35;;;1.63;;
63312;SDS011;49442;45.640;13.812;2024-01-16T10:10:58;8.50;;;3.47;;
63312;SDS011;49442;45.640;13.812;2024-01-16T10:13:24;1.67;;;1.35;;
63312;SDS011;49442;45.640;13.812;2024-01-16T10:15:51;2.20;;;1.60;;
63312;SDS011;49442;45.640;13.812;2024-01-16T10:18:28;2.08;;;1.50;;
63312;SDS011;49442;45.640;13.812;2024-01-16T10:20:59;1.83;;;1.55;;
63312;SDS011;49442;45.640;13.812;2024-01-16T10:23:29;3.08;;;1.60;;
63312;SDS011;49442;45.640;13.812;2024-01-16T10:28:32;1.80;;;1.58;;
63312;SDS011;49442;45.640;13.812;2024-01-16T10:31:02;1.88;;;1.65;;
63312;SDS011;49442;45.640;13.812;2024-01-16T10:33:28;1.77;;;1.55;;
63312;SDS011;49442;45.640;13.812;2024-01-16T10:38:52;2.92;;;2.00;;
63312;SDS011;49442;45.640;13.812;2024-01-16T10:41:28;2.22;;;1.80;;
63312;SDS011;49442;45.640;13.812;2024-01-16T10:44:04;2.33;;;1.58;;
63312;SDS011;49442;45.640;13.812;2024-01-16T10:46:32;1.92;;;1.60;;
63312;SDS011;49442;45.640;13.812;2024-01-16T10:49:01;2.58;;;1.67;;
63312;SDS011;49442;45.640;13.812;2024-01-16T10:51:29;2.90;;;1.55;;
63312;SDS011;49442;45.640;13.812;2024-01-16T10:53:59;1.80;;;1.45;;
63312;SDS011;49442;45.640;13.812;2024-01-16T10:56:28;2.15;;;1.58;;
63312;SDS011;49442;45.640;13.812;2024-01-16T11:01:50;2.25;;;2.05;;
63312;SDS011;49442;45.640;13.812;2024-01-16T11:04:20;2.17;;;1.73;;
63312;SDS011;49442;45.640;13.812;2024-01-16T11:06:47;3.65;;;1.52;;
63312;SDS011;49442;45.640;13.812;2024-01-16T11:09:13;1.58;;;1.40;;
63312;SDS011;49442;45.640;13.812;2024-01-16T11:11:43;2.00;;;1.42;;
63312;SDS011;49442;45.640;13.812;2024-01-16T11:14:11;3.00;;;1.42;;
63312;SDS011;49442;45.640;13.812;2024-01-16T11:16:38;1.40;;;1.10;;
63312;SDS011;49442;45.640;13.812;2024-01-16T11:19:07;3.45;;;1.60;;
63312;SDS011;49442;45.640;13.812;2024-01-16T11:21:34;2.15;;;1.42;;
63312;SDS011;49442;45.640;13.812;2024-01-16T11:24:02;2.65;;;2.15;;
63312;SDS011;49442;45.640;13.812;2024-01-16T11:26:29;3.30;;;2.47;;
63312;SDS011;49442;45.640;13.812;2024-01-16T11:28:59;4.15;;;3.08;;
63312;SDS011;49442;45.640;13.812;2024-01-16T11:31:29;3.13;;;2.30;;
63312;SDS011;49442;45.640;13.812;2024-01-16T11:33:59;2.30;;;1.70;;
63312;SDS011;49442;45.640;13.812;2024-01-16T11:36:47;1.67;;;1.38;;
63312;SDS011;49442;45.640;13.812;2024-01-16T11:39:24;2.63;;;1.80;;
63312;SDS011;49442;45.640;13.812;2024-01-16T11:44:36;2.05;;;1.60;;
63312;SDS011;49442;45.640;13.812;2024-01-16T11:47:19;5.35;;;1.40;;
63312;SDS011;49442;45.640;13.812;2024-01-16T11:49:46;6.93;;;1.60;;
63312;SDS011;49442;45.640;13.812;2024-01-16T11:52:13;1.73;;;1.60;;
63312;SDS011;49442;45.640;13.812;2024-01-16T11:54:39;2.47;;;1.73;;
63312;SDS011;49442;45.640;13.812;2024-01-16T12:00:03;2.33;;;1.50;;
63312;SDS011;49442;45.640;13.812;2024-01-16T12:03:13;2.70;;;1.88;;
63312;SDS011;49442;45.640;13.812;2024-01-16T12:05:31;2.08;;;1.80;;
63312;SDS011;49442;45.640;13.812;2024-01-16T12:07:57;2.80;;;1.50;;
63312;SDS011;49442;45.640;13.812;2024-01-16T12:10:23;1.98;;;1.50;;
63312;SDS011;49442;45.640;13.812;2024-01-16T12:12:50;2.50;;;1.88;;
63312;SDS011;49442;45.640;13.812;2024-01-16T12:15:21;5.45;;;1.92;;
63312;SDS011;49442;45.640;13.812;2024-01-16T12:17:57;2.25;;;1.52;;
63312;SDS011;49442;45.640;13.812;2024-01-16T12:20:25;1.73;;;1.40;;
63312;SDS011;49442;45.640;13.812;2024-01-16T12:23:02;2.00;;;1.65;;
63312;SDS011;49442;45.640;13.812;2024-01-16T12:25:30;1.95;;;1.60;;
63312;SDS011;49442;45.640;13.812;2024-01-16T12:27:57;1.77;;;1.50;;
63312;SDS011;49442;45.640;13.812;2024-01-16T12:30:24;3.75;;;1.73;;
63312;SDS011;49442;45.640;13.812;2024-01-16T12:33:12;1.58;;;1.35;;
63312;SDS011;49442;45.640;13.812;2024-01-16T12:35:42;4.65;;;1.92;;
63312;SDS011;49442;45.640;13.812;2024-01-16T12:38:12;5.93;;;1.70;;
63312;SDS011;49442;45.640;13.812;2024-01-16T12:40:42;1.88;;;1.50;;
63312;SDS011;49442;45.640;13.812;2024-01-16T12:43:13;2.88;;;1.50;;
63312;SDS011;49442;45.640;13.812;2024-01-16T12:45:40;3.10;;;1.73;;
63312;SDS011;49442;45.640;13.812;2024-01-16T12:48:06;1.60;;;1.40;;
63312;SDS011;49442;45.640;13.812;2024-01-16T12:50:33;1.60;;;1.25;;
63312;SDS011;49442;45.640;13.812;2024-01-16T12:55:37;2.05;;;1.30;;
63312;SDS011;49442;45.640;13.812;2024-01-16T13:00:38;2.95;;;1.92;;
63312;SDS011;49442;45.640;13.812;2024-01-16T13:03:06;4.07;;;1.65;;
63312;SDS011;49442;45.640;13.812;2024-01-16T13:05:32;2.35;;;1.33;;
63312;SDS011;49442;45.640;13.812;2024-01-16T13:08:04;2.55;;;1.65;;
63312;SDS011;49442;45.640;13.812;2024-01-16T13:10:30;4.60;;;1.70;;
63312;SDS011;49442;45.640;13.812;2024-01-16T13:15:38;3.22;;;1.60;;
63312;SDS011;49442;45.640;13.812;2024-01-16T13:18:05;2.63;;;1.45;;
63312;SDS011;49442;45.640;13.812;2024-01-16T13:20:31;2.08;;;1.40;;
63312;SDS011;49442;45.640;13.812;2024-01-16T13:22:57;5.18;;;1.60;;
63312;SDS011;49442;45.640;13.812;2024-01-16T13:25:23;2.33;;;1.42;;
63312;SDS011;49442;45.640;13.812;2024-01-16T13:27:49;2.35;;;1.40;;
63312;SDS011;49442;45.640;13.812;2024-01-16T13:30:14;2.53;;;1.55;;
63312;SDS011;49442;45.640;13.812;2024-01-16T13:32:42;12.75;;;2.92;;
63312;SDS011;49442;45.640;13.812;2024-01-16T13:35:08;2.05;;;1.42;;
63312;SDS011;49442;45.640;13.812;2024-01-16T13:37:34;1.92;;;1.40;;
63312;SDS011;49442;45.640;13.812;2024-01-16T13:40:03;9.23;;;1.70;;
63312;SDS011;49442;45.640;13.812;2024-01-16T13:42:33;2.95;;;1.52;;
63312;SDS011;49442;45.640;13.812;2024-01-16T13:45:00;1.85;;;1.50;;
63312;SDS011;49442;45.640;13.812;2024-01-16T13:47:25;5.68;;;1.48;;
63312;SDS011;49442;45.640;13.812;2024-01-16T13:49:51;1.92;;;1.30;;
63312;SDS011;49442;45.640;13.812;2024-01-16T13:52:17;4.18;;;1.45;;
63312;SDS011;49442;45.640;13.812;2024-01-16T13:54:43;3.08;;;1.63;;
63312;SDS011;49442;45.640;13.812;2024-01-16T13:57:09;2.35;;;1.48;;
63312;SDS011;49442;45.640;13.812;2024-01-16T13:59:35;3.00;;;1.60;;
63312;SDS011;49442;45.640;13.812;2024-01-16T14:02:01;2.00;;;1.40;;
63312;SDS011;49442;45.640;13.812;2024-01-16T14:04:28;10.13;;;1.80;;
63312;SDS011;49442;45.640;13.812;2024-01-16T14:06:54;6.95;;;3.10;;
63312;SDS011;49442;45.640;13.812;2024-01-16T14:09:20;3.22;;;1.90;;
63312;SDS011;49442;45.640;13.812;2024-01-16T14:11:46;3.45;;;2.35;;
63312;SDS011;49442;45.640;13.812;2024-01-16T14:14:11;2.92;;;2.13;;
63312;SDS011;49442;45.640;13.812;2024-01-16T14:16:38;4.00;;;1.73;;
63312;SDS011;49442;45.640;13.812;2024-01-16T14:19:03;4.68;;;2.08;;
63312;SDS011;49442;45.640;13.812;2024-01-16T14:21:29;3.70;;;1.90;;
63312;SDS011;49442;45.640;13.812;2024-01-16T14:23:55;3.33;;;2.20;;
63312;SDS011;49442;45.640;13.812;2024-01-16T14:26:21;2.35;;;1.88;;
63312;SDS011;49442;45.640;13.812;2024-01-16T14:28:46;35.85;;;4.70;;
63312;SDS011;49442;45.640;13.812;2024-01-16T14:31:15;7.20;;;2.30;;
63312;SDS011;49442;45.640;13.812;2024-01-16T14:33:40;6.82;;;1.80;;
63312;SDS011;49442;45.640;13.812;2024-01-16T14:36:06;6.18;;;2.00;;
63312;SDS011;49442;45.640;13.812;2024-01-16T14:38:33;9.85;;;2.42;;
63312;SDS011;49442;45.640;13.812;2024-01-16T14:40:58;8.07;;;2.08;;
63312;SDS011;49442;45.640;13.812;2024-01-16T14:43:24;5.47;;;1.98;;
63312;SDS011;49442;45.640;13.812;2024-01-16T14:45:50;3.17;;;2.03;;
63312;SDS011;49442;45.640;13.812;2024-01-16T14:48:16;5.78;;;1.95;;
63312;SDS011;49442;45.640;13.812;2024-01-16T14:50:42;8.50;;;2.45;;
63312;SDS011;49442;45.640;13.812;2024-01-16T14:53:08;6.82;;;1.98;;
63312;SDS011;49442;45.640;13.812;2024-01-16T14:55:34;23.65;;;3.22;;
63312;SDS011;49442;45.640;13.812;2024-01-16T14:57:59;3.38;;;1.98;;